createdAt,value
2023-01-19T00:00:10.604Z,22.93
2023-01-19T00:01:13.554Z,24.09
2023-01-19T00:02:16.435Z,30.26
2023-01-19T00:03:19.391Z,22.67
2023-01-19T00:04:22.168Z,25.74
2023-01-19T00:05:25.255Z,26.18
2023-01-19T00:06:28.101Z,25.75
2023-01-19T00:07:30.685Z,24.07
2023-01-19T00:08:34.075Z,24.07
2023-01-19T00:09:37.021Z,21.91
2023-01-19T00:10:39.819Z,28.36
2023-01-19T00:11:42.712Z,24.67
2023-01-19T00:12:45.773Z,25.11
2023-01-19T00:13:48.852Z,21.73
2023-01-19T00:14:51.625Z,27.30
2023-01-19T00:15:54.568Z,26.71
2023-01-19T00:16:57.645Z,25.02
2023-01-19T00:18:00.561Z,21.26
2023-01-19T00:19:03.550Z,21.17
2023-01-19T00:20:06.604Z,24.64
2023-01-19T00:21:09.493Z,29.06
2023-01-19T00:22:12.361Z,26.80
2023-01-19T00:23:15.352Z,23.38
2023-01-19T00:24:18.316Z,24.21
2023-01-19T00:25:21.188Z,26.22
2023-01-19T00:26:23.544Z,22.98
2023-01-19T00:27:26.326Z,22.65
2023-01-19T00:28:29.045Z,23.59
2023-01-19T00:29:32.180Z,25.12
2023-01-19T00:30:35.052Z,22.48
2023-01-19T00:31:37.901Z,21.76
2023-01-19T00:32:40.695Z,19.56
2023-01-19T00:33:43.779Z,23.34
2023-01-19T00:34:46.862Z,23.78
2023-01-19T00:35:49.634Z,25.62
2023-01-19T00:36:52.513Z,21.83
2023-01-19T00:37:55.074Z,22.65
2023-01-19T00:38:58.156Z,21.07
2023-01-19T00:40:01.334Z,27.69
2023-01-19T00:41:04.108Z,23.23
2023-01-19T00:42:06.975Z,23.68
2023-01-19T00:43:09.956Z,25.81
2023-01-19T00:44:12.741Z,27.76
2023-01-19T00:45:15.929Z,24.30
2023-01-19T00:46:18.896Z,23.69
2023-01-19T00:47:21.665Z,26.05
2023-01-19T00:48:24.552Z,22.82
2023-01-19T00:49:27.515Z,20.85
2023-01-19T00:50:30.701Z,22.68
2023-01-19T00:51:33.263Z,23.42
2023-01-19T00:52:35.867Z,23.66
2023-01-19T00:53:38.497Z,22.77
2023-01-19T00:54:41.171Z,25.22
2023-01-19T00:55:44.040Z,27.82
2023-01-19T00:56:46.854Z,23.51
2023-01-19T00:57:49.692Z,25.45
2023-01-19T00:58:52.474Z,22.88
2023-01-19T00:59:55.336Z,20.26
2023-01-19T01:00:58.631Z,21.33
2023-01-19T01:02:01.873Z,22.95
2023-01-19T01:03:05.382Z,26.15
2023-01-19T01:04:08.491Z,25.34
2023-01-19T01:05:11.358Z,29.29
2023-01-19T01:06:14.644Z,23.57
2023-01-19T01:07:17.515Z,24.72
2023-01-19T01:08:20.498Z,24.23
2023-01-19T01:09:23.397Z,22.05
2023-01-19T01:10:26.257Z,25.37
2023-01-19T01:11:29.578Z,21.35
2023-01-19T01:12:32.524Z,20.13
2023-01-19T01:13:35.272Z,24.62
2023-01-19T01:14:38.153Z,22.72
2023-01-19T01:15:41.025Z,22.72
2023-01-19T01:16:44.281Z,25.82
2023-01-19T01:17:47.207Z,25.27
2023-01-19T01:18:50.064Z,23.37
2023-01-19T01:19:52.851Z,23.76
2023-01-19T01:20:56.421Z,22.29
2023-01-19T01:21:59.623Z,25.42
2023-01-19T01:23:03.143Z,27.61
2023-01-19T01:24:06.283Z,21.42
2023-01-19T01:25:10.274Z,21.52
2023-01-19T01:26:13.044Z,24.77
2023-01-19T01:27:16.155Z,24.15
2023-01-19T01:28:19.009Z,24.92
2023-01-19T01:29:21.879Z,24.16
2023-01-19T01:30:24.789Z,25.02
2023-01-19T01:31:27.567Z,24.98
2023-01-19T01:32:30.698Z,25.77
2023-01-19T01:33:41.128Z,23.41
2023-01-19T01:34:37.885Z,26.18
2023-01-19T01:35:40.555Z,23.58
2023-01-19T01:36:43.635Z,20.68
2023-01-19T01:37:46.918Z,25.51
2023-01-19T01:38:49.798Z,23.42
2023-01-19T01:39:52.779Z,22.92
2023-01-19T01:40:55.563Z,23.18
2023-01-19T01:41:58.348Z,24.78
2023-01-19T01:43:01.669Z,21.05
2023-01-19T01:44:04.908Z,22.35
2023-01-19T01:45:07.733Z,24.84
2023-01-19T01:46:10.490Z,26.62
2023-01-19T01:47:13.307Z,26.79
2023-01-19T01:48:16.169Z,25.53
2023-01-19T01:49:18.840Z,24.27
2023-01-19T01:50:21.613Z,19.78
2023-01-19T01:51:24.204Z,18.48
2023-01-19T01:52:26.755Z,19.95
2023-01-19T01:53:29.440Z,20.90
2023-01-19T01:54:32.319Z,21.69
2023-01-19T01:55:35.470Z,24.42
2023-01-19T01:56:38.454Z,20.98
2023-01-19T01:57:41.431Z,21.74
2023-01-19T01:58:44.651Z,22.10
2023-01-19T01:59:47.389Z,22.98
2023-01-19T02:00:50.268Z,19.44
2023-01-19T02:01:53.129Z,24.08
2023-01-19T02:02:56.229Z,20.30
2023-01-19T02:03:59.298Z,20.20
2023-01-19T02:05:02.075Z,20.60
2023-01-19T02:06:04.843Z,27.68
2023-01-19T02:07:07.816Z,19.65
2023-01-19T02:08:10.693Z,22.19
2023-01-19T02:09:14.000Z,23.14
2023-01-19T02:10:16.746Z,22.00
2023-01-19T02:11:19.639Z,22.55
2023-01-19T02:12:22.531Z,24.68
2023-01-19T02:13:25.161Z,32.19
2023-01-19T02:14:28.345Z,27.45
2023-01-19T02:15:31.346Z,22.05
2023-01-19T02:16:34.140Z,26.17
2023-01-19T02:17:36.973Z,22.85
2023-01-19T02:18:39.845Z,25.08
2023-01-19T02:19:43.029Z,24.85
2023-01-19T02:20:46.010Z,25.29
2023-01-19T02:21:48.983Z,22.49
2023-01-19T02:22:51.965Z,24.22
2023-01-19T02:23:54.845Z,23.12
2023-01-19T02:24:57.822Z,22.80
2023-01-19T02:26:00.623Z,17.33
2023-01-19T02:27:03.452Z,17.40
2023-01-19T02:28:06.462Z,20.94
2023-01-19T02:29:09.435Z,22.30
2023-01-19T02:30:12.613Z,23.00
2023-01-19T02:31:15.585Z,22.16
2023-01-19T02:32:18.447Z,17.23
2023-01-19T02:33:22.137Z,19.28
2023-01-19T02:34:25.124Z,18.26
2023-01-19T02:35:28.302Z,16.61
2023-01-19T02:36:31.449Z,18.22
2023-01-19T02:37:34.147Z,16.06
2023-01-19T02:38:36.925Z,16.02
2023-01-19T02:39:39.687Z,18.41
2023-01-19T02:40:42.586Z,21.50
2023-01-19T02:41:45.131Z,19.12
2023-01-19T02:42:47.801Z,20.21
2023-01-19T02:43:50.483Z,17.32
2023-01-19T02:44:53.143Z,19.48
2023-01-19T02:45:56.310Z,21.73
2023-01-19T02:46:58.992Z,23.63
2023-01-19T02:48:01.974Z,18.79
2023-01-19T02:49:04.758Z,22.32
2023-01-19T02:50:07.616Z,23.32
2023-01-19T02:51:10.633Z,20.33
2023-01-19T02:52:13.620Z,19.45
2023-01-19T02:53:16.680Z,18.55
2023-01-19T02:54:19.541Z,16.65
2023-01-19T02:55:22.635Z,21.57
2023-01-19T02:56:25.513Z,23.50
2023-01-19T02:57:28.459Z,18.73
2023-01-19T02:58:31.532Z,16.88
2023-01-19T02:59:34.418Z,15.49
2023-01-19T03:00:37.228Z,18.88
2023-01-19T03:01:40.346Z,16.12
2023-01-19T03:02:43.432Z,16.88
2023-01-19T03:03:46.517Z,20.69
2023-01-19T03:04:49.719Z,19.29
2023-01-19T03:05:52.689Z,19.88
2023-01-19T03:06:55.977Z,21.33
2023-01-19T03:07:58.850Z,18.35
2023-01-19T03:09:01.832Z,20.29
2023-01-19T03:10:04.698Z,20.34
2023-01-19T03:11:07.578Z,20.31
2023-01-19T03:12:10.965Z,20.75
2023-01-19T03:13:14.147Z,23.16
2023-01-19T03:14:16.934Z,15.91
2023-01-19T03:15:19.911Z,19.55
2023-01-19T03:16:23.068Z,19.97
2023-01-19T03:17:26.157Z,18.41
2023-01-19T03:18:29.568Z,16.29
2023-01-19T03:19:32.429Z,16.21
2023-01-19T03:20:35.177Z,19.49
2023-01-19T03:21:37.861Z,17.60
2023-01-19T03:22:41.339Z,20.50
2023-01-19T03:23:44.329Z,19.67
2023-01-19T03:24:47.403Z,20.96
2023-01-19T03:25:50.297Z,22.03
2023-01-19T03:26:53.165Z,22.55
2023-01-19T03:27:56.337Z,23.98
2023-01-19T03:28:59.117Z,20.17
2023-01-19T03:30:01.881Z,22.64
2023-01-19T03:31:04.978Z,25.31
2023-01-19T03:32:07.937Z,20.13
2023-01-19T03:33:10.849Z,22.86
2023-01-19T03:34:13.381Z,19.88
2023-01-19T03:35:16.149Z,18.03
2023-01-19T03:36:18.933Z,18.51
2023-01-19T03:37:21.578Z,17.52
2023-01-19T03:38:24.254Z,15.76
2023-01-19T03:39:27.063Z,18.63
2023-01-19T03:40:29.392Z,18.06
2023-01-19T03:41:32.172Z,21.28
2023-01-19T03:42:35.070Z,18.41
2023-01-19T03:43:38.012Z,19.31
2023-01-19T03:44:40.837Z,20.78
2023-01-19T03:45:43.867Z,20.18
2023-01-19T03:46:46.737Z,20.31
2023-01-19T03:47:49.712Z,18.05
2023-01-19T03:48:52.689Z,24.40
2023-01-19T03:49:55.468Z,19.71
2023-01-19T03:50:58.569Z,17.43
2023-01-19T03:52:01.418Z,20.70
2023-01-19T03:53:04.270Z,22.12
2023-01-19T03:54:07.590Z,21.15
2023-01-19T03:55:10.373Z,22.36
2023-01-19T03:56:13.344Z,18.42
2023-01-19T03:57:16.096Z,21.18
2023-01-19T03:58:18.986Z,20.93
2023-01-19T03:59:22.062Z,18.02
2023-01-19T04:00:24.822Z,16.80
2023-01-19T04:01:28.114Z,16.63
2023-01-19T04:02:31.333Z,19.27
2023-01-19T04:03:34.173Z,19.27
2023-01-19T04:04:37.549Z,20.14
2023-01-19T04:05:40.540Z,18.09
2023-01-19T04:06:43.312Z,19.50
2023-01-19T04:07:46.182Z,18.02
2023-01-19T04:08:49.053Z,16.44
2023-01-19T04:09:52.057Z,17.83
2023-01-19T04:10:54.904Z,17.13
2023-01-19T04:11:57.784Z,19.07
2023-01-19T04:13:01.213Z,17.65
2023-01-19T04:14:04.348Z,18.94
2023-01-19T04:15:07.526Z,18.28
2023-01-19T04:16:10.358Z,18.34
2023-01-19T04:17:13.285Z,17.68
2023-01-19T04:18:16.150Z,16.65
2023-01-19T04:19:19.046Z,15.91
2023-01-19T04:20:22.007Z,15.27
2023-01-19T04:21:24.884Z,18.87
2023-01-19T04:22:27.756Z,14.26
2023-01-19T04:23:31.550Z,19.25
2023-01-19T04:24:34.426Z,15.39
2023-01-19T04:25:38.958Z,14.58
2023-01-19T04:26:41.817Z,17.36
2023-01-19T04:27:44.478Z,16.34
2023-01-19T04:28:47.164Z,16.02
2023-01-19T04:29:49.815Z,15.80
2023-01-19T04:30:52.960Z,18.89
2023-01-19T04:31:55.677Z,18.51
2023-01-19T04:32:58.829Z,14.68
2023-01-19T04:34:01.944Z,16.15
2023-01-19T04:35:04.633Z,15.52
2023-01-19T04:36:07.279Z,17.03
2023-01-19T04:37:10.254Z,15.58
2023-01-19T04:38:13.099Z,18.79
2023-01-19T04:39:16.011Z,16.32
2023-01-19T04:40:19.091Z,11.62
2023-01-19T04:41:22.572Z,17.89
2023-01-19T04:42:25.543Z,16.32
2023-01-19T04:43:28.314Z,19.27
2023-01-19T04:44:31.310Z,15.96
2023-01-19T04:45:34.065Z,15.38
2023-01-19T04:46:37.202Z,15.14
2023-01-19T04:47:39.917Z,18.32
2023-01-19T04:48:42.829Z,15.68
2023-01-19T04:49:45.932Z,15.57
2023-01-19T04:50:48.758Z,14.09
2023-01-19T04:51:51.723Z,15.64
2023-01-19T04:52:54.611Z,14.29
2023-01-19T04:53:57.431Z,19.42
2023-01-19T04:55:00.052Z,16.16
2023-01-19T04:56:03.024Z,17.23
2023-01-19T04:57:06.215Z,14.93
2023-01-19T04:58:09.066Z,13.58
2023-01-19T04:59:11.958Z,16.32
2023-01-19T05:00:14.829Z,17.83
2023-01-19T05:01:17.879Z,14.12
2023-01-19T05:02:20.896Z,14.75
2023-01-19T05:03:25.718Z,16.09
2023-01-19T05:04:28.271Z,15.54
2023-01-19T05:05:31.042Z,16.86
2023-01-19T05:06:33.919Z,14.77
2023-01-19T05:07:36.947Z,17.35
2023-01-19T05:08:39.971Z,16.61
2023-01-19T05:09:42.734Z,13.48
2023-01-19T05:10:45.523Z,16.23
2023-01-19T05:11:48.433Z,13.54
2023-01-19T05:12:51.355Z,15.67
2023-01-19T05:13:54.364Z,14.80
2023-01-19T05:14:57.117Z,17.78
2023-01-19T05:16:01.078Z,18.08
2023-01-19T05:17:03.815Z,13.78
2023-01-19T05:18:06.364Z,18.31
2023-01-19T05:19:09.390Z,14.95
2023-01-19T05:20:13.818Z,17.78
2023-01-19T05:21:16.215Z,14.82
2023-01-19T05:22:19.017Z,14.58
2023-01-19T05:23:21.765Z,18.76
2023-01-19T05:24:24.316Z,14.37
2023-01-19T05:25:26.994Z,16.51
2023-01-19T05:26:29.705Z,16.63
2023-01-19T05:27:32.332Z,19.18
2023-01-19T05:28:35.012Z,17.05
2023-01-19T05:29:37.567Z,19.23
2023-01-19T05:30:40.456Z,15.52
2023-01-19T05:31:43.297Z,17.61
2023-01-19T05:32:46.186Z,14.03
2023-01-19T05:33:49.372Z,14.96
2023-01-19T05:34:52.258Z,15.39
2023-01-19T05:35:55.017Z,16.92
2023-01-19T05:36:57.892Z,14.28
2023-01-19T05:38:00.691Z,14.98
2023-01-19T05:39:03.754Z,19.41
2023-01-19T05:40:06.648Z,14.11
2023-01-19T05:41:09.507Z,16.98
2023-01-19T05:42:12.415Z,18.20
2023-01-19T05:43:15.249Z,15.39
2023-01-19T05:44:18.222Z,14.67
2023-01-19T05:45:21.205Z,16.96
2023-01-19T05:46:24.337Z,16.82
2023-01-19T05:47:27.160Z,14.75
2023-01-19T05:48:29.924Z,14.85
2023-01-19T05:49:33.033Z,15.81
2023-01-19T05:50:35.895Z,20.81
2023-01-19T05:51:38.755Z,19.49
2023-01-19T05:52:41.632Z,19.68
2023-01-19T05:53:44.504Z,15.48
2023-01-19T05:54:47.993Z,14.83
2023-01-19T05:55:50.970Z,12.85
2023-01-19T05:56:53.837Z,13.67
2023-01-19T05:57:56.813Z,18.54
2023-01-19T05:58:59.814Z,16.76
2023-01-19T06:00:02.974Z,19.44
2023-01-19T06:01:05.936Z,17.94
2023-01-19T06:02:08.785Z,18.28
2023-01-19T06:03:11.545Z,16.50
2023-01-19T06:04:14.593Z,16.50
2023-01-19T06:05:17.670Z,15.39
2023-01-19T06:06:20.539Z,18.92
2023-01-19T06:07:24.400Z,16.23
2023-01-19T06:08:27.826Z,13.57
2023-01-19T06:09:30.799Z,17.00
2023-01-19T06:10:33.882Z,18.40
2023-01-19T06:11:36.749Z,19.12
2023-01-19T06:12:39.725Z,17.14
2023-01-19T06:13:42.515Z,17.43
2023-01-19T06:14:45.476Z,15.59
2023-01-19T06:15:48.554Z,15.58
2023-01-19T06:16:51.459Z,17.01
2023-01-19T06:17:54.415Z,12.01
2023-01-19T06:18:57.320Z,14.82
2023-01-19T06:20:00.168Z,18.82
2023-01-19T06:21:03.257Z,20.02
2023-01-19T06:22:06.216Z,16.44
2023-01-19T06:23:09.195Z,17.72
2023-01-19T06:24:13.775Z,17.62
2023-01-19T06:25:16.370Z,16.41
2023-01-19T06:26:19.554Z,13.78
2023-01-19T06:27:22.424Z,17.80
2023-01-19T06:28:25.307Z,16.38
2023-01-19T06:29:29.475Z,20.32
2023-01-19T06:30:32.774Z,19.30
2023-01-19T06:31:36.035Z,16.56
2023-01-19T06:32:39.052Z,17.72
2023-01-19T06:33:42.054Z,19.02
2023-01-19T06:34:44.841Z,19.46
2023-01-19T06:35:47.886Z,23.14
2023-01-19T06:36:50.473Z,22.19
2023-01-19T06:37:53.422Z,23.47
2023-01-19T06:38:56.308Z,20.96
2023-01-19T06:39:59.179Z,17.68
2023-01-19T06:41:01.957Z,22.94
2023-01-19T06:42:05.022Z,18.48
2023-01-19T06:43:07.905Z,23.73
2023-01-19T06:44:10.846Z,20.57
2023-01-19T06:45:13.649Z,22.34
2023-01-19T06:46:16.729Z,21.55
2023-01-19T06:47:19.400Z,20.65
2023-01-19T06:48:22.179Z,17.68
2023-01-19T06:49:24.942Z,19.75
2023-01-19T06:50:28.026Z,17.82
2023-01-19T06:51:31.016Z,15.36
2023-01-19T06:52:34.010Z,20.39
2023-01-19T06:53:37.145Z,19.28
2023-01-19T06:54:39.956Z,20.75
2023-01-19T06:55:42.722Z,23.17
2023-01-19T06:56:45.692Z,23.15
2023-01-19T06:57:48.367Z,21.02
2023-01-19T06:58:51.539Z,20.09
2023-01-19T06:59:54.113Z,21.16
2023-01-19T07:00:56.751Z,19.32
2023-01-19T07:01:59.594Z,20.35
2023-01-19T07:03:03.257Z,20.76
2023-01-19T07:04:06.131Z,22.17
2023-01-19T07:05:08.782Z,19.93
2023-01-19T07:06:11.449Z,26.88
2023-01-19T07:07:14.141Z,19.36
2023-01-19T07:08:17.023Z,21.95
2023-01-19T07:09:19.896Z,18.59
2023-01-19T07:10:22.645Z,21.55
2023-01-19T07:11:31.635Z,20.78
2023-01-19T07:12:29.633Z,18.81
2023-01-19T07:13:32.910Z,20.27
2023-01-19T07:14:36.837Z,18.31
2023-01-19T07:15:39.692Z,17.55
2023-01-19T07:16:42.719Z,13.72
2023-01-19T07:17:45.743Z,13.54
2023-01-19T07:18:48.836Z,12.29
2023-01-19T07:19:51.700Z,14.58
2023-01-19T07:20:54.557Z,14.78
2023-01-19T07:21:57.336Z,15.00
2023-01-19T07:23:00.455Z,18.78
2023-01-19T07:24:03.700Z,13.81
2023-01-19T07:25:06.469Z,18.06
2023-01-19T07:26:09.353Z,18.41
2023-01-19T07:27:12.117Z,17.02
2023-01-19T07:28:15.098Z,15.69
2023-01-19T07:29:18.172Z,16.31
2023-01-19T07:30:21.046Z,17.53
2023-01-19T07:31:24.030Z,19.24
2023-01-19T07:32:27.026Z,16.11
2023-01-19T07:33:29.905Z,18.57
2023-01-19T07:34:33.057Z,12.85
2023-01-19T07:35:36.197Z,13.30
2023-01-19T07:36:38.919Z,15.16
2023-01-19T07:37:41.717Z,13.64
2023-01-19T07:38:44.478Z,13.61
2023-01-19T07:39:47.558Z,18.65
2023-01-19T07:40:50.412Z,16.58
2023-01-19T07:41:53.724Z,14.19
2023-01-19T07:42:56.566Z,14.82
2023-01-19T07:43:59.478Z,17.46
2023-01-19T07:45:02.522Z,20.08
2023-01-19T07:46:05.345Z,14.44
2023-01-19T07:47:08.167Z,15.62
2023-01-19T07:48:11.157Z,16.37
2023-01-19T07:49:13.922Z,18.80
2023-01-19T07:50:17.009Z,16.32
2023-01-19T07:51:19.770Z,19.35
2023-01-19T07:52:22.650Z,18.08
2023-01-19T07:53:25.620Z,19.12
2023-01-19T07:54:28.506Z,17.63
2023-01-19T07:55:31.527Z,18.08
2023-01-19T07:56:34.250Z,21.42
2023-01-19T07:57:37.353Z,18.23
2023-01-19T07:58:40.408Z,23.11
2023-01-19T07:59:43.202Z,20.77
2023-01-19T08:00:46.472Z,26.39
2023-01-19T08:01:49.547Z,22.70
2023-01-19T08:02:52.427Z,20.05
2023-01-19T08:03:55.597Z,18.09
2023-01-19T08:04:58.588Z,19.24
2023-01-19T08:06:01.857Z,21.35
2023-01-19T08:07:04.741Z,17.86
2023-01-19T08:08:07.515Z,17.73
2023-01-19T08:09:10.584Z,20.15
2023-01-19T08:10:13.313Z,18.79
2023-01-19T08:11:16.443Z,20.27
2023-01-19T08:12:19.206Z,21.61
2023-01-19T08:13:21.978Z,16.44
2023-01-19T08:14:24.899Z,17.70
2023-01-19T08:15:27.696Z,22.35
2023-01-19T08:16:30.600Z,20.14
2023-01-19T08:17:33.581Z,18.88
2023-01-19T08:18:36.454Z,20.30
2023-01-19T08:19:41.455Z,20.25
2023-01-19T08:20:43.643Z,17.91
2023-01-19T08:21:46.857Z,19.30
2023-01-19T08:22:50.000Z,19.86
2023-01-19T08:23:52.840Z,20.37
2023-01-19T08:24:55.645Z,20.40
2023-01-19T08:25:58.533Z,18.24
2023-01-19T08:27:01.704Z,19.64
2023-01-19T08:28:04.679Z,17.49
2023-01-19T08:29:07.555Z,17.34
2023-01-19T08:30:10.047Z,18.64
2023-01-19T08:31:20.464Z,16.84
2023-01-19T08:32:17.482Z,18.68
2023-01-19T08:33:20.291Z,17.20
2023-01-19T08:34:23.181Z,18.02
2023-01-19T08:35:26.135Z,16.88
2023-01-19T08:36:30.032Z,14.16
2023-01-19T08:37:34.289Z,17.11
2023-01-19T08:38:37.445Z,15.67
2023-01-19T08:39:41.424Z,16.37
2023-01-19T08:40:44.440Z,15.91
2023-01-19T08:41:47.672Z,16.92
2023-01-19T08:42:50.357Z,18.57
2023-01-19T08:43:53.043Z,19.53
2023-01-19T08:44:58.772Z,14.51
2023-01-19T08:45:59.862Z,19.43
2023-01-19T08:47:02.567Z,15.52
2023-01-19T08:48:05.237Z,15.84
2023-01-19T08:49:07.956Z,17.20
2023-01-19T08:50:10.505Z,15.63
2023-01-19T08:51:13.361Z,21.14
2023-01-19T08:52:16.031Z,16.21
2023-01-19T08:53:18.699Z,17.75
2023-01-19T08:54:21.316Z,17.93
2023-01-19T08:55:23.939Z,18.56
2023-01-19T08:56:26.603Z,15.95
2023-01-19T08:57:29.266Z,16.97
2023-01-19T08:58:32.144Z,16.93
2023-01-19T08:59:34.975Z,17.23
2023-01-19T09:00:37.888Z,15.68
2023-01-19T09:01:41.031Z,14.25
2023-01-19T09:02:44.058Z,17.52
2023-01-19T09:03:47.081Z,16.11
2023-01-19T09:04:49.806Z,15.75
2023-01-19T09:05:52.900Z,18.77
2023-01-19T09:06:55.659Z,17.04
2023-01-19T09:07:58.728Z,18.07
2023-01-19T09:09:01.819Z,16.98
2023-01-19T09:10:04.657Z,15.68
2023-01-19T09:11:07.461Z,18.30
2023-01-19T09:12:10.355Z,23.08
2023-01-19T09:13:13.114Z,21.07
2023-01-19T09:14:16.216Z,20.47
2023-01-19T09:15:18.966Z,19.22
2023-01-19T09:16:21.807Z,20.66
2023-01-19T09:17:24.718Z,22.86
2023-01-19T09:18:27.589Z,17.75
2023-01-19T09:19:30.598Z,14.24
2023-01-19T09:20:33.432Z,14.82
2023-01-19T09:21:36.319Z,19.29
2023-01-19T09:22:38.982Z,22.96
2023-01-19T09:23:41.871Z,21.62
2023-01-19T09:24:44.876Z,21.17
2023-01-19T09:25:47.525Z,20.61
2023-01-19T09:26:50.278Z,17.94
2023-01-19T09:27:52.839Z,19.20
2023-01-19T09:28:55.630Z,13.95
2023-01-19T09:29:58.713Z,17.19
2023-01-19T09:31:01.683Z,16.55
2023-01-19T09:32:04.542Z,19.82
2023-01-19T09:33:07.517Z,17.50
2023-01-19T09:34:10.495Z,16.22
2023-01-19T09:35:13.576Z,18.93
2023-01-19T09:36:16.463Z,16.09
2023-01-19T09:37:19.426Z,19.36
2023-01-19T09:38:22.453Z,21.30
2023-01-19T09:39:25.285Z,16.97
2023-01-19T09:40:28.378Z,16.72
2023-01-19T09:41:30.927Z,18.12
2023-01-19T09:42:33.801Z,16.72
2023-01-19T09:43:36.714Z,21.89
2023-01-19T09:44:39.455Z,17.00
2023-01-19T09:45:42.449Z,20.68
2023-01-19T09:46:45.533Z,15.72
2023-01-19T09:47:48.427Z,14.85
2023-01-19T09:48:51.151Z,15.76
2023-01-19T09:49:54.069Z,18.18
2023-01-19T09:50:57.505Z,14.12
2023-01-19T09:52:00.329Z,13.77
2023-01-19T09:53:03.389Z,16.73
2023-01-19T09:54:06.334Z,12.75
2023-01-19T09:55:09.322Z,14.08
2023-01-19T09:56:12.397Z,17.63
2023-01-19T09:57:15.016Z,16.47
2023-01-19T09:58:17.632Z,14.18
2023-01-19T10:00:37.093Z,14.44
2023-01-19T10:01:40.163Z,12.24
2023-01-19T10:02:43.073Z,14.80
2023-01-19T10:03:45.725Z,14.42
2023-01-19T10:04:48.721Z,14.53
2023-01-19T10:05:51.580Z,14.18
2023-01-19T10:06:54.568Z,17.91
2023-01-19T10:07:57.340Z,14.05
2023-01-19T10:09:00.203Z,15.99
2023-01-19T10:10:03.201Z,16.50
2023-01-19T10:11:06.160Z,14.78
2023-01-19T10:13:25.120Z,16.70
2023-01-19T10:14:27.929Z,15.16
2023-01-19T10:15:30.659Z,15.77
2023-01-19T10:16:33.336Z,16.72
2023-01-19T10:17:36.103Z,15.93
2023-01-19T10:18:38.668Z,15.26
2023-01-19T10:19:41.241Z,13.70
2023-01-19T10:20:43.917Z,16.93
2023-01-19T10:21:46.680Z,18.30
2023-01-19T10:22:49.269Z,16.12
2023-01-19T10:23:51.918Z,18.75
2023-01-19T10:24:54.630Z,16.52
2023-01-19T10:25:57.372Z,17.53
2023-01-19T10:27:00.266Z,15.16
2023-01-19T10:29:19.019Z,13.02
2023-01-19T10:30:21.755Z,14.51
2023-01-19T10:31:24.933Z,15.02
2023-01-19T10:32:27.626Z,12.42
2023-01-19T10:33:31.698Z,12.98
2023-01-19T10:34:34.439Z,12.66
2023-01-19T10:35:37.300Z,13.15
2023-01-19T10:36:40.083Z,12.67
2023-01-19T10:37:42.934Z,11.90
2023-01-19T10:38:46.217Z,10.99
2023-01-19T10:39:49.053Z,14.29
2023-01-19T10:40:51.948Z,13.94
2023-01-19T10:41:54.892Z,11.32
2023-01-19T10:42:57.492Z,11.65
2023-01-19T10:45:08.873Z,14.98
2023-01-19T10:46:11.926Z,15.46
2023-01-19T10:47:14.776Z,14.41
2023-01-19T10:48:17.394Z,13.38
2023-01-19T10:49:20.596Z,14.45
2023-01-19T10:51:31.725Z,13.26
2023-01-19T10:52:34.633Z,16.17
2023-01-19T10:53:37.633Z,12.92
2023-01-19T10:54:40.810Z,12.64
2023-01-19T10:55:43.772Z,15.60
2023-01-19T10:56:46.660Z,14.69
2023-01-19T10:59:05.304Z,16.97
2023-01-19T11:00:08.457Z,17.41
2023-01-19T11:01:11.632Z,17.45
2023-01-19T11:02:14.681Z,14.22
2023-01-19T11:03:17.489Z,16.37
2023-01-19T11:04:20.293Z,14.03
2023-01-19T11:05:23.268Z,13.01
2023-01-19T11:06:26.030Z,14.68
2023-01-19T11:07:28.711Z,13.62
2023-01-19T11:08:31.485Z,18.03
2023-01-19T11:09:34.251Z,14.15
2023-01-19T11:10:38.859Z,17.53
2023-01-19T11:11:41.624Z,16.53
2023-01-19T11:12:44.500Z,15.38
2023-01-19T11:13:47.481Z,17.18
2023-01-19T11:14:50.309Z,12.88
2023-01-19T11:15:53.119Z,15.77
2023-01-19T11:16:55.916Z,19.47
2023-01-19T11:19:02.270Z,17.45
2023-01-19T11:20:06.161Z,18.72
2023-01-19T11:22:12.218Z,19.31
2023-01-19T11:24:17.977Z,19.27
2023-01-19T11:35:49.327Z,19.48
2023-01-19T11:41:03.238Z,16.10
2023-01-19T11:42:05.908Z,17.97
2023-01-19T11:43:08.898Z,17.32
2023-01-19T11:44:11.776Z,16.82
2023-01-19T11:45:14.642Z,19.38
2023-01-19T11:46:17.419Z,19.56
2023-01-19T11:47:20.791Z,16.08
2023-01-19T11:48:23.974Z,15.90
2023-01-19T11:49:27.172Z,17.04
2023-01-19T11:50:30.553Z,18.11
2023-01-19T11:51:33.339Z,18.06
2023-01-19T11:52:36.607Z,19.87
2023-01-19T11:53:39.526Z,17.56
2023-01-19T11:54:42.371Z,14.65
2023-01-19T11:55:45.441Z,18.72
2023-01-19T11:56:48.715Z,16.95
2023-01-19T11:57:54.224Z,17.12
2023-01-19T11:58:55.804Z,19.47
2023-01-19T11:59:59.018Z,19.55
2023-01-19T12:01:01.922Z,17.17
2023-01-19T12:02:05.023Z,19.95
2023-01-19T12:03:07.990Z,17.25
2023-01-19T12:04:10.801Z,20.48
2023-01-19T12:05:13.970Z,17.71
2023-01-19T12:06:17.050Z,17.88
2023-01-19T12:07:19.924Z,16.81
2023-01-19T12:08:23.334Z,19.68
2023-01-19T12:09:26.076Z,21.93
2023-01-19T12:10:29.186Z,19.40
2023-01-19T12:11:31.962Z,19.09
2023-01-19T12:12:35.771Z,19.40
2023-01-19T12:13:38.710Z,21.89
2023-01-19T12:14:41.482Z,18.16
2023-01-19T12:15:44.161Z,20.27
2023-01-19T12:16:46.884Z,18.17
2023-01-19T12:17:49.808Z,16.73
2023-01-19T12:18:52.885Z,14.75
2023-01-19T12:19:55.660Z,18.32
2023-01-19T12:20:58.805Z,13.73
2023-01-19T12:22:01.612Z,20.49
2023-01-19T12:23:04.542Z,17.27
2023-01-19T12:24:07.292Z,15.32
2023-01-19T12:25:09.927Z,16.57
2023-01-19T12:26:12.494Z,15.95
2023-01-19T12:27:15.373Z,16.70
2023-01-19T12:28:18.458Z,17.42
2023-01-19T12:29:21.135Z,15.18
2023-01-19T12:30:24.913Z,19.56
2023-01-19T12:31:27.701Z,16.58
2023-01-19T12:32:30.602Z,14.18
2023-01-19T12:33:33.123Z,17.45
2023-01-19T12:34:35.897Z,17.02
2023-01-19T12:35:38.834Z,20.26
2023-01-19T12:36:41.762Z,17.28
2023-01-19T12:37:44.518Z,17.42
2023-01-19T12:38:47.194Z,15.43
2023-01-19T12:39:50.175Z,16.12
2023-01-19T12:40:53.044Z,18.61
2023-01-19T12:41:55.914Z,18.12
2023-01-19T12:42:58.697Z,16.45
2023-01-19T12:44:01.671Z,14.24
2023-01-19T12:45:04.647Z,16.34
2023-01-19T12:46:07.344Z,18.03
2023-01-19T12:47:09.877Z,18.87
2023-01-19T12:48:12.559Z,18.11
2023-01-19T12:49:15.333Z,17.28
2023-01-19T12:50:18.230Z,17.19
2023-01-19T12:51:20.760Z,12.95
2023-01-19T12:52:23.340Z,16.02
2023-01-19T12:53:26.010Z,18.55
2023-01-19T12:54:28.697Z,15.64
2023-01-19T12:55:31.345Z,18.54
2023-01-19T12:56:33.923Z,20.43
2023-01-19T12:57:36.582Z,19.12
2023-01-19T12:58:39.252Z,18.88
2023-01-19T12:59:42.192Z,17.48
2023-01-19T13:00:45.213Z,15.47
2023-01-19T13:01:48.130Z,18.08
2023-01-19T13:02:50.864Z,17.05
2023-01-19T13:03:53.642Z,17.08
2023-01-19T13:04:56.604Z,20.64
2023-01-19T13:05:59.829Z,21.98
2023-01-19T13:07:02.659Z,19.49
2023-01-19T13:08:05.245Z,20.12
2023-01-19T13:09:08.305Z,20.31
2023-01-19T13:10:11.179Z,16.92
2023-01-19T13:11:15.189Z,16.02
2023-01-19T13:12:18.165Z,17.90
2023-01-19T13:13:21.030Z,13.88
2023-01-19T13:14:23.702Z,16.91
2023-01-19T13:15:26.368Z,17.73
2023-01-19T13:16:29.244Z,20.28
2023-01-19T13:17:32.154Z,19.46
2023-01-19T13:18:34.696Z,19.25
2023-01-19T13:19:37.149Z,16.74
2023-01-19T13:20:39.620Z,18.24
2023-01-19T13:21:44.535Z,19.43
2023-01-19T13:22:46.830Z,18.44
2023-01-19T13:23:49.469Z,20.29
2023-01-19T13:24:52.342Z,17.57
2023-01-19T13:25:55.112Z,19.12
2023-01-19T13:26:57.803Z,17.46
2023-01-19T13:28:00.447Z,14.45
2023-01-19T13:29:04.363Z,21.73
2023-01-19T13:30:06.930Z,16.82
2023-01-19T13:31:09.553Z,19.18
2023-01-19T13:32:12.168Z,18.20
2023-01-19T13:33:14.731Z,15.10
2023-01-19T13:34:17.391Z,15.75
2023-01-19T13:35:20.067Z,14.02
2023-01-19T13:36:22.945Z,17.46
2023-01-19T13:37:25.920Z,18.74
2023-01-19T13:38:28.606Z,15.38
2023-01-19T13:39:31.360Z,16.99
2023-01-19T13:40:33.923Z,18.17
2023-01-19T13:41:36.604Z,19.81
2023-01-19T13:42:39.266Z,15.55
2023-01-19T13:43:41.837Z,17.89
2023-01-19T13:44:44.069Z,17.65
2023-01-19T13:45:48.490Z,19.07
2023-01-19T13:46:50.087Z,21.14
2023-01-19T13:47:52.337Z,19.42
2023-01-19T13:48:54.577Z,16.11
2023-01-19T13:49:56.820Z,17.32
2023-01-19T13:50:59.194Z,17.12
2023-01-19T13:52:01.379Z,16.88
2023-01-19T13:53:03.659Z,20.25
2023-01-19T13:54:05.873Z,17.33
2023-01-19T13:55:08.425Z,19.37